Blackville, South Carolina
Current Conditions -  °F | °C
As of 4:55 PM on Friday 31 Oct 2014 (Local Time) from KBNL Reporting Station
Scattered Clouds Scattered Clouds  
Wind Chill: 19°   Ceiling: Unl
Heat Index: 19°   Visibility: 10mi
Dew Point:   Wind: 0mph
Humidity: 49%   Direction: NA
Pressure: 29.79"   Gusts: NA
Location:  33.36°N, 81.27°W
Report Text: KBNL 312055Z AUTO 00000KT 10SM FEW065 SCT080 SCT090 19/08 A2979 RMK AO2
Loading
Personal Weather Stations






























Interactive Weather Map
Tropical Storm Tracking
New forecast layout! Learn more

10-Day Weather Forecast

Advertisements
Track Severe Weather on mobile